Time;durP1;ratioP1;P1;durP2;ratioP2;P2;SDS_P1;SDS_P2;PMS_P1;PMS_P2;Temp;Humidity;BMP_temperature;BMP_pressure;BME280_temperature;BME280_humidity;BME280_pressure;Samples;Min_cycle;Max_cycle;Signal;HPM_P1;HPM_P2
2021/11/08 00:01:18;;;;;;;16.48;4.25;;;;;;;6.34;99.02;102059.06;5074324;28;20067;-36
2021/11/08 00:03:46;;;;;;;16.33;4.38;;;;;;;6.25;98.89;102060.97;5074521;28;20029;-36
2021/11/08 00:06:14;;;;;;;16.77;4.20;;;;;;;6.22;98.66;102047.88;5073960;28;20031;-36
2021/11/08 00:08:41;;;;;;;17.33;4.13;;;;;;;6.20;99.07;102044.53;5074465;28;20032;-35
2021/11/08 00:11:06;;;;;;;15.07;4.38;;;;;;;6.20;98.79;102044.53;5073615;28;20041;-36
2021/11/08 00:13:33;;;;;;;14.20;4.90;;;;;;;6.17;99.20;102048.38;5074309;28;20032;-36
2021/11/08 00:18:33;;;;;;;19.42;4.13;;;;;;;6.11;98.99;102043.72;5073936;28;19908;-36
2021/11/08 00:21:00;;;;;;;16.13;4.60;;;;;;;6.09;99.06;102042.19;5074130;28;20033;-36
2021/11/08 00:23:27;;;;;;;;;;;;;;;6.19;97.93;102050.88;5073910;28;20495;-36
2021/11/08 00:25:53;;;;;;;17.38;4.25;;;;;;;5.99;98.16;102041.53;5073684;28;19912;-36
2021/11/08 00:28:20;;;;;;;15.52;4.13;;;;;;;6.04;98.17;102055.28;5074372;28;20032;-36
2021/11/08 00:30:47;;;;;;;20.33;4.75;;;;;;;6.03;99.03;102053.63;5073324;28;20535;-36
2021/11/08 00:33:15;;;;;;;12.25;4.20;;;;;;;6.04;99.21;102050.75;5073901;28;20055;-36
2021/11/08 00:35:45;;;;;;;17.52;4.43;;;;;;;6.07;99.49;102050.44;5073551;28;20040;-36
2021/11/08 00:38:11;;;;;;;18.02;4.38;;;;;;;5.87;99.79;102031.16;5073661;28;20028;-36
2021/11/08 00:40:38;;;;;;;14.82;3.45;;;;;;;6.08;99.92;102053.94;5073600;28;20021;-36
2021/11/08 00:43:05;;;;;;;12.68;3.53;;;;;;;6.06;99.21;102058.66;5074093;28;20111;-35
2021/11/08 00:45:30;;;;;;;21.17;4.95;;;;;;;6.03;99.76;102053.63;5073146;28;20506;-36
2021/11/08 00:47:58;;;;;;;16.05;4.32;;;;;;;5.97;98.78;102062.38;5074008;28;20024;-35
2021/11/08 00:50:24;;;;;;;17.77;4.20;;;;;;;5.82;99.05;102046.09;5073316;28;20028;-36
2021/11/08 00:52:50;;;;;;;17.15;3.70;;;;;;;5.89;99.71;102060.50;5073809;28;20372;-36
2021/11/08 00:55:16;;;;;;;15.13;3.78;;;;;;;5.80;99.55;102054.28;5073337;28;20040;-36
2021/11/08 00:57:44;;;;;;;14.60;4.25;;;;;;;5.76;99.55;102069.09;5073311;28;20028;-36
2021/11/08 01:00:13;;;;;;;14.65;3.70;;;;;;;5.79;99.55;102065.22;5073271;28;20025;-36
2021/11/08 01:02:39;;;;;;;16.45;4.35;;;;;;;5.76;100.00;102078.97;5074045;28;20025;-36
2021/11/08 01:05:06;;;;;;;;;;;;;;;5.79;99.30;102071.41;5074365;28;20029;-36
2021/11/08 01:07:31;;;;;;;13.75;4.38;;;;;;;5.72;100.00;102069.59;5073363;28;19993;-35
2021/11/08 01:09:58;;;;;;;16.10;3.63;;;;;;;5.78;100.00;102072.44;5072956;28;20496;-36
2021/11/08 01:12:25;;;;;;;;;;;;;;;5.81;100.00;102077.47;5074075;28;20055;-35
2021/11/08 01:14:51;;;;;;;;;;;;;;;5.82;99.15;102078.31;5073516;28;19916;-36
2021/11/08 01:17:17;;;;;;;18.52;4.82;;;;;;;5.79;100.00;102076.78;5072916;28;19921;-36
2021/11/08 01:19:43;;;;;;;20.85;5.90;;;;;;;5.70;100.00;102075.13;5073499;28;20037;-36
2021/11/08 01:22:19;;;;;;;;;;;;;;;5.75;99.49;102080.81;5073170;28;20025;-35
2021/11/08 01:24:56;;;;;;;17.20;4.07;;;;;;;5.66;100.00;102076.44;5073212;28;19931;-36
2021/11/08 01:27:33;;;;;;;19.77;4.70;;;;;;;5.51;100.00;102065.56;5073201;28;20036;-35
2021/11/08 01:30:00;;;;;;;14.93;4.32;;;;;;;5.50;99.06;102079.16;5073408;28;20032;-36
2021/11/08 01:32:26;;;;;;;15.18;4.55;;;;;;;5.55;100.00;102066.91;5073095;28;20029;-36
2021/11/08 01:34:51;;;;;;;18.33;4.78;;;;;;;5.58;100.00;102074.63;5073451;28;20085;-36
2021/11/08 01:37:18;;;;;;;19.70;4.57;;;;;;;5.60;100.00;102064.56;5072885;28;20024;-36
2021/11/08 01:39:44;;;;;;;20.58;5.43;;;;;;;5.73;100.00;102077.47;5073117;28;20043;-36
2021/11/08 01:42:11;;;;;;;18.17;4.75;;;;;;;5.64;100.00;102062.38;5072769;28;20460;-36
2021/11/08 01:44:37;;;;;;;17.15;4.75;;;;;;;5.71;100.00;102051.78;5073122;28;20124;-36
2021/11/08 01:47:04;;;;;;;13.73;4.57;;;;;;;5.75;100.00;102058.50;5071511;28;20142;-36
2021/11/08 01:49:30;;;;;;;16.73;5.03;;;;;;;5.80;100.00;102067.72;5072778;28;20103;-35
2021/11/08 01:51:56;;;;;;;14.40;5.00;;;;;;;5.79;100.00;102068.72;5072792;28;20103;-35
2021/11/08 01:54:22;;;;;;;18.45;5.25;;;;;;;5.79;100.00;102074.09;5073363;28;20058;-36
2021/11/08 01:56:48;;;;;;;;;;;;;;;5.83;100.00;102064.72;5073452;28;20017;-35
2021/11/08 01:59:14;;;;;;;18.23;4.93;;;;;;;5.79;100.00;102071.41;5072806;28;19915;-35
2021/11/08 02:01:40;;;;;;;14.50;4.60;;;;;;;5.81;100.00;102076.63;5072778;28;20033;-35
2021/11/08 02:04:05;;;;;;;27.35;6.93;;;;;;;5.81;100.00;102068.59;5072465;28;20618;-35
2021/11/08 02:06:31;;;;;;;17.53;5.50;;;;;;;5.77;100.00;102069.94;5072761;28;20353;-36
2021/11/08 02:08:56;;;;;;;19.97;5.07;;;;;;;5.72;100.00;102069.59;5073436;28;20267;-36
2021/11/08 02:11:21;;;;;;;21.13;5.83;;;;;;;5.76;100.00;102077.16;5072984;28;20680;-36
2021/11/08 02:13:50;;;;;;;16.90;5.37;;;;;;;5.77;100.00;102076.13;5072713;28;20025;-35
2021/11/08 02:16:16;;;;;;;17.83;5.18;;;;;;;5.75;100.00;102070.06;5072294;28;20031;-36
2021/11/08 02:18:42;;;;;;;20.63;5.43;;;;;;;5.74;100.00;102079.13;5105079;28;20043;-36
2021/11/08 02:21:10;;;;;;;17.70;5.10;;;;;;;5.76;100.00;102082.50;5072266;28;20024;-36
2021/11/08 02:23:37;;;;;;;14.57;5.22;;;;;;;5.78;100.00;102076.97;5072731;28;20047;-35
2021/11/08 02:26:06;;;;;;;20.77;6.40;;;;;;;5.82;100.00;102073.78;5072032;28;20037;-36
2021/11/08 02:28:32;;;;;;;19.77;5.85;;;;;;;5.83;100.00;102078.13;5072580;28;20029;-35
2021/11/08 02:30:58;;;;;;;15.05;5.22;;;;;;;5.81;100.00;102076.63;5072478;28;20021;-36
2021/11/08 02:33:27;;;;;;;18.42;5.60;;;;;;;5.75;100.00;102067.38;5073499;28;20021;-35
2021/11/08 02:35:55;;;;;;;24.63;6.22;;;;;;;5.79;100.00;102076.78;5076541;28;20028;-35
2021/11/08 02:38:30;;;;;;;20.50;5.57;;;;;;;5.75;100.00;102071.91;5108338;28;20032;-36
2021/11/08 02:40:59;;;;;;;20.45;6.20;;;;;;;5.61;100.00;102050.16;5075950;28;20536;-35
2021/11/08 02:43:26;;;;;;;20.77;5.78;;;;;;;5.80;100.00;102074.94;5075483;28;20029;-35
2021/11/08 02:46:12;;;;;;;19.08;5.40;;;;;;;5.69;100.00;102068.06;5075690;28;20033;-36
2021/11/08 02:48:38;;;;;;;15.35;5.25;;;;;;;5.61;100.00;102060.00;5076212;28;20032;-35
2021/11/08 02:51:13;;;;;;;26.70;6.68;;;;;;;5.61;100.00;102070.75;5075504;28;20020;-36
2021/11/08 02:53:40;;;;;;;18.52;5.93;;;;;;;5.58;100.00;102066.56;5075645;28;20036;-36
2021/11/08 02:56:10;;;;;;;15.55;5.00;;;;;;;5.69;100.00;102094.91;5075973;28;20024;-36
2021/11/08 02:58:39;;;;;;;16.20;5.53;;;;;;;5.61;100.00;102089.53;5075593;28;20028;-35
2021/11/08 03:01:06;;;;;;;21.85;5.70;;;;;;;5.57;100.00;102083.69;5075420;28;20377;-36
2021/11/08 03:03:40;;;;;;;17.20;5.55;;;;;;;5.65;100.00;102080.16;5076261;28;20033;-36
2021/11/08 03:06:14;;;;;;;18.55;6.03;;;;;;;5.58;100.00;102080.00;5076003;28;20376;-35
2021/11/08 03:08:39;;;;;;;15.77;5.05;;;;;;;5.52;100.00;102087.88;5076411;28;20086;-35
2021/11/08 03:11:05;;;;;;;20.73;6.00;;;;;;;5.54;100.00;102086.69;5075606;28;20379;-36
2021/11/08 03:13:35;;;;;;;16.00;5.80;;;;;;;5.57;100.00;102088.22;5075246;28;20017;-35
2021/11/08 03:16:21;;;;;;;20.10;6.07;;;;;;;5.59;100.00;102092.41;5075138;28;20078;-35
2021/11/08 03:18:52;;;;;;;25.70;7.05;;;;;;;5.64;100.00;102090.03;5075597;28;20055;-36
2021/11/08 03:21:18;;;;;;;21.05;5.90;;;;;;;5.61;100.00;102084.16;5074985;28;20028;-35
2021/11/08 03:23:48;;;;;;;22.98;6.00;;;;;;;5.59;100.00;102084.34;5075503;28;20029;-35
2021/11/08 03:26:42;;;;;;;20.63;5.88;;;;;;;5.55;100.00;102091.03;5075084;28;20531;-35
2021/11/08 03:29:00;;;;;;;20.70;7.25;;;;;;;5.60;100.00;102090.53;5074827;28;20063;-35
2021/11/08 03:31:26;;;;;;;15.90;5.80;;;;;;;5.56;100.00;102100.81;5074869;28;20387;-36
2021/11/08 03:33:53;;;;;;;18.98;5.55;;;;;;;5.55;100.00;102096.41;5075146;28;20025;-36
2021/11/08 03:36:18;;;;;;;21.80;6.22;;;;;;;5.51;100.00;102081.66;5074850;28;20107;-36
2021/11/08 03:38:44;;;;;;;21.17;6.43;;;;;;;5.55;100.00;102090.22;5075137;28;20021;-35
2021/11/08 03:41:10;;;;;;;16.75;7.00;;;;;;;5.59;100.00;102102.28;5074918;28;20457;-35
2021/11/08 03:43:37;;;;;;;21.27;6.57;;;;;;;5.60;100.00;102101.28;5074702;28;20032;-35
2021/11/08 03:46:02;;;;;;;18.23;6.72;;;;;;;5.57;100.00;102101.63;5074099;28;20488;-36
2021/11/08 03:48:28;;;;;;;19.50;5.90;;;;;;;5.54;100.00;102100.09;5074835;28;20031;-36
2021/11/08 03:50:54;;;;;;;26.27;6.80;;;;;;;5.51;100.00;102094.22;5074371;28;20032;-36
2021/11/08 03:53:20;;;;;;;20.58;6.72;;;;;;;5.49;100.00;102102.47;5075170;28;20039;-36
2021/11/08 03:55:46;;;;;;;25.52;6.28;;;;;;;5.52;100.00;102104.81;5074094;28;20472;-35
2021/11/08 03:58:12;;;;;;;31.02;7.63;;;;;;;5.52;100.00;102107.50;5074977;28;20063;-36
2021/11/08 04:00:40;;;;;;;;;;;;;;;5.59;100.00;102107.66;5074674;28;20056;-36
2021/11/08 04:03:07;;;;;;;23.02;5.85;;;;;;;5.55;100.00;102106.31;5074430;28;19909;-36
2021/11/08 04:05:35;;;;;;;23.20;6.47;;;;;;;5.51;100.00;102110.34;5074100;28;20029;-36
2021/11/08 04:08:04;;;;;;;27.60;6.45;;;;;;;5.56;100.00;102116.91;5074296;28;20032;-35
2021/11/08 04:10:31;;;;;;;20.40;6.78;;;;;;;5.56;100.00;102129.44;5074291;28;20044;-36
2021/11/08 04:13:03;;;;;;;;;;;;;;;5.63;100.00;102130.47;5074710;28;20028;-36
2021/11/08 04:15:33;;;;;;;24.60;6.95;;;;;;;5.61;100.00;102119.06;5074403;28;20327;-36
2021/11/08 04:17:58;;;;;;;24.27;7.15;;;;;;;5.59;100.00;102121.06;5074393;28;20036;-36
2021/11/08 04:20:24;;;;;;;23.10;7.50;;;;;;;5.55;100.00;102107.16;5074150;28;20044;-36
2021/11/08 04:22:53;;;;;;;21.27;7.50;;;;;;;5.65;100.00;102128.44;5073772;28;20056;-35
2021/11/08 04:25:22;;;;;;;23.38;6.80;;;;;;;5.63;100.00;102117.91;5073536;28;20468;-36
2021/11/08 04:27:48;;;;;;;24.88;7.97;;;;;;;5.66;100.00;102127.44;5073996;28;20051;-36
2021/11/08 04:30:14;;;;;;;27.05;8.15;;;;;;;5.67;100.00;102124.59;5073627;28;20024;-36
2021/11/08 04:35:20;;;;;;;30.30;7.43;;;;;;;5.70;100.00;102123.41;5073807;28;20037;-36
2021/11/08 04:40:40;;;;;;;23.25;7.90;;;;;;;5.71;100.00;102126.94;5074157;28;20452;-36
2021/11/08 04:43:13;;;;;;;28.50;7.35;;;;;;;5.57;100.00;102102.47;5074315;28;20032;-36
2021/11/08 04:51:03;;;;;;;25.13;7.73;;;;;;;5.62;100.00;102120.75;5073406;28;20032;-36
2021/11/08 05:23:47;;;;;;;29.10;8.38;;;;;;;5.53;100.00;102111.84;5071522;28;20095;-36
2021/11/08 05:31:36;;;;;;;23.88;7.75;;;;;;;5.75;100.00;102155.97;5071195;28;20040;-36
2021/11/08 05:34:01;;;;;;;;;;;;;;;5.82;100.00;102153.47;5073419;28;20035;-36
2021/11/08 05:36:27;;;;;;;33.13;8.07;;;;;;;5.68;100.00;102141.56;5072731;28;19912;-36
2021/11/08 05:38:53;;;;;;;23.00;7.53;;;;;;;5.76;100.00;102149.63;5072974;28;20120;-36
2021/11/08 05:41:18;;;;;;;26.23;7.47;;;;;;;5.79;100.00;102160.00;5072898;28;20032;-36
2021/11/08 05:43:44;;;;;;;24.52;7.75;;;;;;;5.80;100.00;102171.56;5072922;28;20029;-36
2021/11/08 05:46:10;;;;;;;26.73;7.47;;;;;;;5.82;100.00;102162.34;5072594;28;20025;-36
2021/11/08 05:48:37;;;;;;;30.80;9.45;;;;;;;5.62;100.00;102131.50;5072199;28;20055;-36
2021/11/08 05:51:02;;;;;;;;;;;;;;;5.87;100.00;102167.22;5072840;28;20041;-36
2021/11/08 05:53:27;;;;;;;27.88;8.10;;;;;;;5.85;100.00;102166.53;5073092;28;19924;-36
2021/11/08 05:56:05;;;;;;;23.70;7.20;;;;;;;5.86;100.00;102173.59;5072818;28;20086;-36
2021/11/08 06:50:25;;;;;;;26.05;8.50;;;;;;;6.09;100.00;102203.31;5074774;28;20043;-36
2021/11/08 06:52:51;;;;;;;28.80;7.70;;;;;;;6.09;100.00;102200.63;5075677;28;20024;-36
2021/11/08 06:55:19;;;;;;;27.33;7.65;;;;;;;6.11;100.00;102218.28;5076364;28;20349;-36
2021/11/08 06:57:49;;;;;;;31.40;7.93;;;;;;;6.12;100.00;102214.56;5075280;28;20456;-36
2021/11/08 07:00:17;;;;;;;29.45;9.45;;;;;;;6.12;100.00;102213.75;5076302;28;20086;-36
2021/11/08 07:02:42;;;;;;;29.52;8.68;;;;;;;6.04;100.00;102200.31;5075151;28;20032;-36
2021/11/08 07:05:08;;;;;;;28.63;8.87;;;;;;;6.15;100.00;102214.25;5075548;28;20040;-36
2021/11/08 07:07:33;;;;;;;32.40;7.68;;;;;;;6.09;100.00;102208.69;5075443;28;20043;-36
2021/11/08 07:09:58;;;;;;;27.70;9.43;;;;;;;6.16;100.00;102225.84;5075549;28;20048;-36
2021/11/08 07:12:24;;;;;;;27.17;8.07;;;;;;;6.15;100.00;102216.09;5075174;28;20024;-36
2021/11/08 07:14:49;;;;;;;28.00;8.47;;;;;;;6.16;100.00;102225.84;5075805;28;20035;-36
2021/11/08 07:17:15;;;;;;;30.70;8.57;;;;;;;6.17;100.00;102216.75;5075713;28;20470;-36
2021/11/08 07:19:40;;;;;;;25.73;8.33;;;;;;;6.16;100.00;102220.47;5074565;28;20309;-36
2021/11/08 07:22:06;;;;;;;31.65;8.48;;;;;;;6.22;100.00;102235.06;5074902;28;20077;-36
2021/11/08 07:24:32;;;;;;;26.90;7.78;;;;;;;6.17;100.00;102222.13;5075436;28;20479;-36
2021/11/08 07:26:57;;;;;;;31.10;9.60;;;;;;;6.26;100.00;102242.63;5075867;28;20402;-36
2021/11/08 07:29:25;;;;;;;31.00;8.73;;;;;;;6.26;100.00;102233.72;5075093;28;20247;-36
2021/11/08 07:31:50;;;;;;;26.50;8.63;;;;;;;6.14;100.00;102211.72;5074905;28;20325;-36
2021/11/08 07:34:16;;;;;;;29.47;8.40;;;;;;;6.33;100.00;102240.91;5074951;28;20029;-36
2021/11/08 07:36:41;;;;;;;24.97;7.83;;;;;;;6.36;100.00;102248.66;5074957;28;20037;-36
2021/11/08 07:39:07;;;;;;;30.50;9.70;;;;;;;6.28;100.00;102224.47;5074992;28;20365;-36
2021/11/08 07:41:33;;;;;;;29.10;7.50;;;;;;;6.40;100.00;102251.84;5074626;28;20039;-36
2021/11/08 07:43:58;;;;;;;36.95;9.85;;;;;;;6.42;100.00;102258.72;5074959;28;20055;-36
2021/11/08 07:46:24;;;;;;;39.25;9.77;;;;;;;6.27;100.00;102227.34;5074390;28;20391;-36
2021/11/08 07:48:49;;;;;;;28.63;8.30;;;;;;;6.45;100.00;102262.94;5075002;28;20025;-36
2021/11/08 07:51:17;;;;;;;26.07;7.57;;;;;;;6.47;100.00;102260.06;5075080;28;20033;-36
2021/11/08 07:53:43;;;;;;;27.58;8.32;;;;;;;6.47;100.00;102260.91;5074411;28;20024;-36
2021/11/08 07:56:09;;;;;;;24.38;7.32;;;;;;;6.46;100.00;102261.91;5074259;28;20029;-36
2021/11/08 07:58:36;;;;;;;32.15;8.88;;;;;;;6.41;100.00;102257.03;5074830;28;20423;-36
2021/11/08 08:01:02;;;;;;;30.70;8.93;;;;;;;6.46;100.00;102264.59;5074455;28;20039;-36
2021/11/08 08:03:28;;;;;;;28.75;8.38;;;;;;;6.47;100.00;102268.97;5075076;28;20423;-36
2021/11/08 08:05:55;;;;;;;34.87;9.13;;;;;;;6.49;100.00;102269.66;5074317;28;20028;-36
2021/11/08 08:08:21;;;;;;;27.25;8.05;;;;;;;6.44;100.00;102258.53;5074567;28;20250;-36
2021/11/08 08:10:49;;;;;;;27.57;8.50;;;;;;;6.54;100.00;102277.16;5074424;28;20044;-36
2021/11/08 08:13:19;;;;;;;23.38;7.97;;;;;;;6.56;100.00;102267.94;5074967;28;20414;-36
2021/11/08 08:15:44;;;;;;;25.25;8.50;;;;;;;6.55;100.00;102270.81;5074095;28;20036;-36
2021/11/08 08:18:11;;;;;;;32.63;10.23;;;;;;;6.59;100.00;102272.16;5074359;28;20452;-36
2021/11/08 08:20:37;;;;;;;28.83;8.40;;;;;;;6.59;100.00;102274.84;5074104;28;20036;-36
2021/11/08 08:23:02;;;;;;;23.63;8.85;;;;;;;6.58;100.00;102270.47;5074125;28;20040;-36
2021/11/08 08:25:28;;;;;;;21.50;8.03;;;;;;;6.69;100.00;102281.72;5074395;28;20067;-36
2021/11/08 08:27:53;;;;;;;32.30;9.17;;;;;;;6.70;100.00;102279.88;5074028;28;20255;-36
2021/11/08 08:30:19;;;;;;;27.65;8.52;;;;;;;6.82;100.00;102291.94;5073865;28;20283;-36
2021/11/08 08:32:45;;;;;;;27.13;7.57;;;;;;;6.88;100.00;102302.03;5073656;28;20025;-36
2021/11/08 08:35:10;;;;;;;26.80;8.27;;;;;;;6.97;100.00;102310.88;5074653;28;20032;-36
2021/11/08 08:37:36;;;;;;;29.17;8.65;;;;;;;7.04;100.00;102303.81;5074135;28;20570;-36
2021/11/08 08:40:03;;;;;;;21.45;8.07;;;;;;;7.04;100.00;102294.91;5073648;28;20549;-36
2021/11/08 08:42:28;;;;;;;27.52;8.65;;;;;;;7.20;100.00;102311.84;5073484;28;20111;-36
2021/11/08 08:44:54;;;;;;;29.17;9.43;;;;;;;7.29;100.00;102315.34;5073576;28;20468;-36
2021/11/08 08:47:21;;;;;;;24.73;7.43;;;;;;;7.31;100.00;102323.25;5073531;28;20035;-36
2021/11/08 08:49:47;;;;;;;22.23;6.93;;;;;;;7.29;99.97;102304.59;5073208;28;20083;-36
2021/11/08 08:52:14;;;;;;;21.00;7.18;;;;;;;7.42;100.00;102320.19;5072069;28;20036;-36
2021/11/08 08:54:40;;;;;;;29.67;8.43;;;;;;;7.42;100.00;102321.03;5073311;28;20021;-36
2021/11/08 08:57:07;;;;;;;25.42;8.55;;;;;;;7.36;100.00;102305.56;5072181;28;20098;-36
2021/11/08 08:59:33;;;;;;;26.40;7.95;;;;;;;7.46;99.83;102325.03;5073253;28;20029;-36
2021/11/08 09:01:59;;;;;;;;;;;;;;;7.54;99.85;102336.78;5073761;28;20037;-36
2021/11/08 09:04:26;;;;;;;25.88;7.65;;;;;;;7.46;99.62;102338.47;5073493;28;19915;-36
2021/11/08 09:06:51;;;;;;;24.85;8.00;;;;;;;7.48;99.82;102331.09;5072879;28;20123;-36
2021/11/08 09:09:17;;;;;;;23.50;7.03;;;;;;;7.51;99.85;102334.44;5073071;28;20036;-36
2021/11/08 09:11:42;;;;;;;29.67;7.43;;;;;;;7.43;99.74;102327.25;5073962;28;20041;-36
2021/11/08 09:14:07;;;;;;;24.73;7.67;;;;;;;7.53;99.41;102345.88;5073449;28;20040;-36
2021/11/08 09:16:33;;;;;;;20.57;7.17;;;;;;;7.50;99.46;102349.75;5073328;28;20333;-36
2021/11/08 09:18:59;;;;;;;20.05;7.38;;;;;;;7.45;99.01;102342.19;5073678;28;20110;-36
2021/11/08 09:21:27;;;;;;;16.23;6.80;;;;;;;7.50;98.79;102338.97;5073094;28;20024;-36
2021/11/08 09:23:55;;;;;;;23.55;7.82;;;;;;;7.49;98.86;102345.38;5072833;28;20074;-36
2021/11/08 09:26:23;;;;;;;32.28;9.13;;;;;;;7.48;99.41;102347.25;5072989;28;20083;-36
2021/11/08 09:28:49;;;;;;;20.08;7.88;;;;;;;7.49;99.40;102338.16;5073227;28;20017;-36
2021/11/08 09:31:15;;;;;;;35.00;9.02;;;;;;;7.51;99.29;102329.88;5072577;28;20463;-36
2021/11/08 09:33:42;;;;;;;32.92;12.60;;;;;;;7.50;99.24;102333.59;5072994;28;20384;-36
2021/11/08 09:36:08;;;;;;;44.47;18.10;;;;;;;7.44;99.68;102326.22;5072856;28;20071;-36
2021/11/08 09:38:39;;;;;;;32.92;14.48;;;;;;;7.52;99.88;102341.53;5073740;28;20028;-36
2021/11/08 09:41:11;;;;;;;28.98;12.35;;;;;;;7.31;99.44;102304.41;5072844;28;20040;-36
2021/11/08 09:43:39;;;;;;;29.85;9.73;;;;;;;7.53;99.69;102337.81;5075387;28;20534;-36
2021/11/08 09:46:05;;;;;;;26.55;9.10;;;;;;;7.53;99.21;102338.66;5076832;28;20448;-36
2021/11/08 09:48:30;;;;;;;22.45;8.07;;;;;;;7.41;98.82;102310.41;5076956;28;20025;-36
2021/11/08 09:50:57;;;;;;;23.50;8.73;;;;;;;7.59;99.54;102339.78;5076706;28;20111;-36
2021/11/08 09:53:23;;;;;;;24.85;11.13;;;;;;;7.57;99.58;102336.44;5076492;28;20033;-36
2021/11/08 09:55:49;;;;;;;29.07;9.80;;;;;;;7.62;99.16;102328.69;5077217;28;20055;-36
2021/11/08 09:58:15;;;;;;;30.17;9.70;;;;;;;7.56;99.19;102327.50;5077383;28;20021;-36
2021/11/08 10:00:47;;;;;;;30.83;11.07;;;;;;;7.60;98.84;102333.38;5076637;28;20033;-36
2021/11/08 10:03:25;;;;;;;37.42;11.70;;;;;;;7.61;99.22;102325.16;5077587;28;20033;-36
2021/11/08 10:05:53;;;;;;;28.55;10.48;;;;;;;7.67;99.15;102329.84;5076545;28;20067;-36
2021/11/08 10:08:22;;;;;;;27.65;9.55;;;;;;;7.75;99.00;102337.84;5076188;28;20109;-36
2021/11/08 10:10:51;;;;;;;32.80;12.77;;;;;;;7.69;98.95;102327.78;5076384;28;20040;-36
2021/11/08 10:13:20;;;;;;;31.42;11.48;;;;;;;7.82;99.18;102340.69;5076261;28;20112;-36
2021/11/08 10:15:52;;;;;;;29.92;10.70;;;;;;;7.87;99.28;102332.09;5076339;28;20036;-36
2021/11/08 10:18:19;;;;;;;31.70;10.30;;;;;;;7.90;98.38;102329.88;5076853;28;20494;-36
2021/11/08 10:20:48;;;;;;;24.65;9.15;;;;;;;7.96;98.19;102339.94;5076192;28;20067;-38
2021/11/08 10:23:17;;;;;;;29.13;9.90;;;;;;;8.00;98.90;102326.94;5076794;28;20078;-36
2021/11/08 10:25:43;;;;;;;26.95;10.23;;;;;;;8.05;98.04;102331.81;5075897;28;20487;-36
2021/11/08 10:28:15;;;;;;;32.97;12.07;;;;;;;8.08;97.40;102335.00;5076393;28;20090;-36
2021/11/08 10:30:43;;;;;;;28.65;10.43;;;;;;;8.03;98.48;102304.22;5076246;28;20368;-36
2021/11/08 10:33:12;;;;;;;22.38;9.70;;;;;;;8.20;97.99;102333.56;5076063;28;20466;-36
2021/11/08 10:35:44;;;;;;;33.97;11.13;;;;;;;8.27;97.51;102333.69;5076623;28;20040;-36
2021/11/08 10:38:34;;;;;;;23.27;8.15;;;;;;;8.22;97.42;102319.91;5076213;28;20081;-36
2021/11/08 10:41:19;;;;;;;29.52;11.40;;;;;;;8.36;96.91;102334.47;5075444;28;20048;-36
2021/11/08 10:43:53;;;;;;;30.13;10.70;;;;;;;8.40;96.84;102341.22;5076070;28;20028;-36
2021/11/08 10:46:27;;;;;;;28.40;9.48;;;;;;;8.44;97.40;102340.69;5076803;28;20077;-36
2021/11/08 10:48:59;;;;;;;34.03;9.80;;;;;;;8.45;96.14;102342.34;5075993;28;20422;-36
2021/11/08 10:51:26;;;;;;;25.95;9.18;;;;;;;8.50;96.10;102339.13;5076352;28;20336;-36
2021/11/08 10:54:06;;;;;;;25.85;8.75;;;;;;;8.46;95.65;102329.69;5075186;28;20032;-36
2021/11/08 10:56:36;;;;;;;29.83;9.93;;;;;;;8.60;95.96;102339.69;5075487;28;20032;-36
2021/11/08 10:59:07;;;;;;;24.42;8.60;;;;;;;8.58;94.89;102338.19;5075681;28;20044;-36
2021/11/08 11:01:34;;;;;;;24.08;9.23;;;;;;;8.65;95.16;102341.84;5075679;28;20036;-36
2021/11/08 11:04:02;;;;;;;29.70;8.82;;;;;;;8.61;94.55;102321.66;5076202;28;20056;-36
2021/11/08 11:06:47;;;;;;;24.35;8.32;;;;;;;8.71;94.89;102333.03;5075087;28;20056;-36
2021/11/08 11:09:22;;;;;;;33.28;8.73;;;;;;;8.75;95.65;102326.25;5075026;28;20536;-36
2021/11/08 11:12:03;;;;;;;21.05;7.85;;;;;;;8.72;95.02;102322.03;5075802;28;20059;-36
2021/11/08 11:14:37;;;;;;;20.17;7.90;;;;;;;8.72;94.95;102319.34;5075249;28;20466;-36
2021/11/08 11:17:12;;;;;;;19.90;7.55;;;;;;;8.66;95.16;102308.47;5075359;28;20543;-36
2021/11/08 11:19:38;;;;;;;25.13;8.07;;;;;;;8.72;94.40;102321.22;5075968;28;20028;-36
2021/11/08 11:22:09;;;;;;;21.63;8.40;;;;;;;8.73;95.02;102334.50;5075046;28;20134;-36
2021/11/08 11:24:45;;;;;;;22.45;8.40;;;;;;;8.72;93.93;102319.34;5075085;28;20071;-36
2021/11/08 11:27:26;;;;;;;26.92;9.27;;;;;;;8.72;94.24;102313.97;5074976;28;20115;-36
2021/11/08 11:30:05;;;;;;;21.77;7.95;;;;;;;8.70;94.01;102309.78;5075358;28;20506;-36
2021/11/08 11:32:31;;;;;;;30.00;12.70;;;;;;;8.75;93.60;102318.16;5075150;28;20054;-36
2021/11/08 11:34:57;;;;;;;27.30;10.20;;;;;;;8.77;94.78;102308.00;5074897;28;20214;-36
2021/11/08 11:37:25;;;;;;;40.30;15.80;;;;;;;8.81;93.57;102325.50;5074506;28;20527;-36
2021/11/08 11:40:04;;;;;;;33.47;15.38;;;;;;;8.85;93.45;102328.69;5074451;28;20124;-36
2021/11/08 11:42:30;;;;;;;33.35;13.65;;;;;;;8.86;93.10;102325.81;5074759;28;20028;-36
2021/11/08 11:45:04;;;;;;;33.58;14.60;;;;;;;8.92;93.11;102330.44;5074365;28;20376;-36
2021/11/08 11:47:29;;;;;;;27.73;8.40;;;;;;;8.97;92.13;102333.44;5074300;28;20028;-36
2021/11/08 11:49:56;;;;;;;29.63;10.93;;;;;;;8.99;91.79;102336.81;5075114;28;20025;-36
2021/11/08 11:52:22;;;;;;;27.90;8.32;;;;;;;8.99;92.35;102342.19;5074422;28;20043;-36
2021/11/08 11:54:47;;;;;;;;;;;;;;;9.07;93.01;102337.72;5074850;28;20504;-36
2021/11/08 11:57:12;;;;;;;26.87;7.73;;;;;;;8.98;91.24;102323.50;5074244;28;20002;-36
2021/11/08 11:59:39;;;;;;;21.87;8.73;;;;;;;9.16;92.74;102333.94;5074092;28;20262;-36
2021/11/08 12:02:05;;;;;;;28.55;10.32;;;;;;;9.30;92.22;102333.09;5074162;28;20040;-36
2021/11/08 12:04:30;;;;;;;25.80;8.38;;;;;;;9.36;91.54;102323.41;5075004;28;20345;-36
2021/11/08 12:07:03;;;;;;;21.63;8.10;;;;;;;9.53;90.96;102335.69;5073904;28;20368;-36
2021/11/08 12:09:32;;;;;;;21.23;6.88;;;;;;;9.61;89.79;102322.06;5073914;28;20024;-36
2021/11/08 12:11:57;;;;;;;21.67;7.10;;;;;;;9.69;89.95;102318.44;5073779;28;20036;-36
2021/11/08 12:14:30;;;;;;;27.13;7.27;;;;;;;9.64;89.50;102323.56;5074136;28;20334;-36
2021/11/08 12:16:58;;;;;;;23.13;6.30;;;;;;;9.60;88.76;102323.09;5073875;28;20039;-36
2021/11/08 12:19:27;;;;;;;21.45;6.88;;;;;;;9.61;88.47;102316.66;5073669;28;20036;-36
2021/11/08 12:21:53;;;;;;;22.75;7.38;;;;;;;9.72;89.10;102324.31;5074113;28;20025;-36
2021/11/08 12:24:25;;;;;;;20.15;6.45;;;;;;;9.85;89.88;102320.06;5074684;28;20035;-36
2021/11/08 12:27:05;;;;;;;23.90;6.80;;;;;;;9.83;88.53;102314.88;5073880;28;20028;-36
2021/11/08 12:29:30;;;;;;;27.40;7.22;;;;;;;9.99;87.25;102330.00;5074428;28;20051;-36
2021/11/08 12:32:11;;;;;;;23.83;6.77;;;;;;;10.08;87.42;102326.16;5073819;28;20112;-36
2021/11/08 12:34:45;;;;;;;24.80;7.60;;;;;;;10.14;87.48;102319.97;5073978;28;20423;-36
2021/11/08 12:37:11;;;;;;;20.90;7.07;;;;;;;10.11;85.75;102303.34;5073836;28;20464;-36
2021/11/08 12:39:37;;;;;;;23.70;7.28;;;;;;;10.31;85.73;102320.63;5073576;28;20053;-36
2021/11/08 12:42:09;;;;;;;19.55;5.93;;;;;;;10.41;85.29;102321.13;5073460;28;20108;-36
2021/11/08 12:44:44;;;;;;;30.98;8.35;;;;;;;10.50;85.15;102319.13;5073401;28;20038;-36
2021/11/08 12:47:11;;;;;;;24.15;7.25;;;;;;;10.55;83.82;102317.50;5073108;28;20099;-36
2021/11/08 12:49:57;;;;;;;17.88;6.55;;;;;;;10.64;85.00;102315.50;5073452;28;20074;-36
2021/11/08 12:52:26;;;;;;;19.38;6.80;;;;;;;10.61;82.40;102299.66;5072954;28;20131;-36
2021/11/08 12:54:55;;;;;;;19.13;5.93;;;;;;;10.76;81.41;102303.09;5073316;28;20427;-36
2021/11/08 12:57:24;;;;;;;18.15;5.43;;;;;;;10.87;80.85;102292.78;5074036;28;20052;-36
2021/11/08 12:59:59;;;;;;;23.50;5.85;;;;;;;11.01;82.11;102299.94;5073703;28;20036;-36
2021/11/08 13:02:43;;;;;;;16.25;4.95;;;;;;;11.05;80.14;102296.66;5073549;28;20031;-36
2021/11/08 13:05:11;;;;;;;18.00;5.10;;;;;;;10.98;77.98;102294.91;5073919;28;20402;-36
2021/11/08 13:07:43;;;;;;;26.13;5.55;;;;;;;10.88;78.94;102291.72;5073179;28;20052;-36